Pelagos — SZSW — position and weather

sailwx.info

Track history (hours):
 
Tides and Currents Weather Stations Pressure Air Temp Water Temp Dewpoint Dewpoint Depression Visibility Wind Speed Wind Dir Waves Ship Positions

Pelagos

Last reported at 2014-Dec-22 08:33 UTC. Time now 2014-Dec-22 14:14 UTC.
Position N 40°19' E 026°36'.

Length 249 m; draft 13.3 m.

Type: Ship (hazmat cat C). MMSI: 240335000.

Date/timePositionNaut miles runAvg speedWind from/ knotsBaromVisibWave heightAir tempDewpointWater temp
2014-Dec-22 08:33N 40°19' E 026°36'  
2014-Dec-19 15:03N 40°53' E 028°40'611.4
2014-Dec-19 14:31N 40°54' E 028°48'9 8.9
2014-Dec-19 13:33N 40°58' E 028°58'20 9.8
2014-Dec-19 11:29N 41°17' E 029°08'8 6.9
2014-Dec-19 10:20N 41°22' E 029°17'6 8.0
2014-Dec-19 09:33N 41°23' E 029°25'1 0.7
2014-Dec-19 08:09N 41°23' E 029°24'1 0.4
2014-Dec-19 06:13N 41°23' E 029°22'1 1.1
2014-Dec-19 05:33N 41°22' E 029°23'3 2.9
2014-Dec-19 04:33N 41°20' E 029°26'1 0.6
2014-Dec-19 03:33N 41°20' E 029°25'3 0.5
2014-Dec-18 22:04N 41°23' E 029°26'2 3.8
2014-Dec-18 21:33N 41°22' E 029°29'0 0.4
2014-Dec-18 20:33N 41°22' E 029°29'1 1.4
2014-Dec-18 19:33N 41°22' E 029°27'1 1.3
2014-Dec-18 18:33N 41°21' E 029°26'1 1.2
2014-Dec-18 17:33N 41°21' E 029°24'1 1.0
2014-Dec-18 16:33N 41°21' E 029°23'1 0.8
2014-Dec-18 15:33N 41°21' E 029°22'3 2.9
2014-Dec-18 14:33N 41°23' E 029°25'4 4.5
2014-Dec-18 13:33N 41°26' E 029°29'1 0.6
2014-Dec-18 12:33N 41°26' E 029°28'1 0.8
2014-Dec-18 11:33N 41°26' E 029°27'1 0.5
2014-Dec-18 10:33N 41°25' E 029°28'3 3.2
2014-Dec-18 09:33N 41°28' E 029°31'23711.1
2014-Dec-17 12:15N 43°17' E 034°15'810.6
2014-Dec-17 11:28N 43°20' E 034°25'4013.3
2014-Dec-17 08:26N 43°39' E 035°15'1210.8
2014-Dec-17 07:17N 43°44' E 035°30'9011.1
2014-Dec-16 23:07N 44°25' E 037°22'1010.9
2014-Dec-16 22:15N 44°30' E 037°34'7 9.9
2014-Dec-16 21:33N 44°34' E 037°41'3 2.6
2014-Dec-16 20:33N 44°36' E 037°43'0 0.1
2014-Dec-16 19:33N 44°36' E 037°43'0 0.3
2014-Dec-16 18:33N 44°36' E 037°43'0 0.4
2014-Dec-16 17:33N 44°36' E 037°44'0 0.3
2014-Dec-16 16:33N 44°36' E 037°43'0 0.2
2014-Dec-16 15:33N 44°36' E 037°43'1 1.3
2014-Dec-16 14:33N 44°36' E 037°41'1 1.4
2014-Dec-16 13:30N 44°37' E 037°39'0 0.0
2014-Dec-16 12:30N 44°37' E 037°39'0 0.0
2014-Dec-16 11:33N 44°37' E 037°40'0 0.0
2014-Dec-16 10:27N 44°37' E 037°40'0 0.1
2014-Dec-16 08:21N 44°37' E 037°39'0 0.0
2014-Dec-16 07:33N 44°37' E 037°39'0 0.0
2014-Dec-16 06:33N 44°37' E 037°40'0 0.0
2014-Dec-16 05:10N 44°37' E 037°39'0 0.0
2014-Dec-15 22:13N 44°37' E 037°40'1 1.0
2014-Dec-15 21:33N 44°37' E 037°40'2 2.1
2014-Dec-15 20:33N 44°35' E 037°40'3 3.1
2014-Dec-15 19:33N 44°35' E 037°45'6 6.4
2014-Dec-15 18:33N 44°34' E 037°54'1 1.4
2014-Dec-15 17:32N 44°34' E 037°56'0 0.0
2014-Dec-15 16:32N 44°34' E 037°56'0 0.1
2014-Dec-15 15:32N 44°34' E 037°55'0 0.0
2014-Dec-15 14:32N 44°34' E 037°55'0 0.0
2014-Dec-15 13:32N 44°34' E 037°55'0 0.0
2014-Dec-15 12:32N 44°34' E 037°56'0 0.0
2014-Dec-15 11:32N 44°34' E 037°55'0 0.0
2014-Dec-15 10:29N 44°34' E 037°56'0 0.0
2014-Dec-15 09:32N 44°34' E 037°56'0 0.1
2014-Dec-15 08:32N 44°34' E 037°56'0 0.0
2014-Dec-15 07:32N 44°34' E 037°56'0 0.0
2014-Dec-15 06:32N 44°34' E 037°56'0 0.0
2014-Dec-15 05:32N 44°34' E 037°56'0 0.0
2014-Dec-15 04:32N 44°34' E 037°55'0 0.0
2014-Dec-15 03:32N 44°34' E 037°55'0 0.0
2014-Dec-15 02:32N 44°34' E 037°56'0 0.0
2014-Dec-15 01:32N 44°34' E 037°55'0 0.0
2014-Dec-15 00:32N 44°34' E 037°55'0 0.0
2014-Dec-14 23:32N 44°34' E 037°55'0 0.1
2014-Dec-14 22:32N 44°34' E 037°55'0 0.0
2014-Dec-14 21:32N 44°34' E 037°55'0 0.0
2014-Dec-14 20:32N 44°34' E 037°55'0 0.0
2014-Dec-14 19:29N 44°34' E 037°55'0 0.0
2014-Dec-14 18:32N 44°34' E 037°55'0 0.0
2014-Dec-14 17:32N 44°34' E 037°55'0 0.0
2014-Dec-14 16:32N 44°34' E 037°55'0 0.0
2014-Dec-14 15:32N 44°34' E 037°55'0 0.1
2014-Dec-14 14:32N 44°34' E 037°55'0 0.0
2014-Dec-14 13:32N 44°34' E 037°55'0 0.0
2014-Dec-14 12:32N 44°34' E 037°55'0 0.0
2014-Dec-14 11:32N 44°34' E 037°55'0 0.1
2014-Dec-14 10:32N 44°34' E 037°55'0 0.0
2014-Dec-14 09:32N 44°34' E 037°55'0 0.0
2014-Dec-14 08:32N 44°34' E 037°55'0 0.0
2014-Dec-14 07:32N 44°34' E 037°55'0 0.0
2014-Dec-14 06:29N 44°34' E 037°55'0 0.0
2014-Dec-14 05:32N 44°34' E 037°55'0 0.1
2014-Dec-14 04:32N 44°34' E 037°55'0 0.0
2014-Dec-14 03:32N 44°34' E 037°55'0 0.0
2014-Dec-14 02:32N 44°34' E 037°55'0 0.0
2014-Dec-14 01:32N 44°34' E 037°55'0 0.0
2014-Dec-14 00:32N 44°34' E 037°55'0 0.1
2014-Dec-13 23:32N 44°34' E 037°56'0 0.1
2014-Dec-13 22:32N 44°34' E 037°55'0 0.1
2014-Dec-13 21:32N 44°34' E 037°56'0 0.2
2014-Dec-13 20:32N 44°34' E 037°55'0 0.0
2014-Dec-13 19:32N 44°34' E 037°55'0 0.1
2014-Dec-13 18:32N 44°34' E 037°55'0 0.0
2014-Dec-13 17:32N 44°34' E 037°55'0 0.0
2014-Dec-13 16:32N 44°34' E 037°55'0 0.0
2014-Dec-13 15:32N 44°34' E 037°55'0 0.0
2014-Dec-13 14:32N 44°34' E 037°55'0 0.1
2014-Dec-13 13:32N 44°34' E 037°55'0 0.1
2014-Dec-13 12:32N 44°34' E 037°55'0 0.0
2014-Dec-13 11:32N 44°34' E 037°55'0 0.0
2014-Dec-13 10:32N 44°34' E 037°55'0 0.0
2014-Dec-13 09:32N 44°34' E 037°55'0 0.0
2014-Dec-13 08:32N 44°34' E 037°55'0 0.0
2014-Dec-13 07:32N 44°34' E 037°55'0 0.1
2014-Dec-13 06:32N 44°34' E 037°55'0 0.0
2014-Dec-13 05:32N 44°34' E 037°55'0 0.0
2014-Dec-13 04:32N 44°34' E 037°55'0 0.0
2014-Dec-13 03:32N 44°34' E 037°55'0 0.0
2014-Dec-13 02:32N 44°34' E 037°55'0 0.0
2014-Dec-13 01:32N 44°34' E 037°55'0 0.0
2014-Dec-13 00:32N 44°34' E 037°55'0 0.0
2014-Dec-12 23:32N 44°34' E 037°55'0 0.1
2014-Dec-12 22:32N 44°34' E 037°56'0 0.1
2014-Dec-12 21:32N 44°34' E 037°56'0 0.3
2014-Dec-12 20:32N 44°34' E 037°56'0 0.1
2014-Dec-12 19:32N 44°34' E 037°55'0 0.1
2014-Dec-12 18:32N 44°34' E 037°56'0 0.0
2014-Dec-12 17:32N 44°34' E 037°56'1 1.1
2014-Dec-12 16:33N 44°34' E 037°54'4 3.8
2014-Dec-12 15:33N 44°30' E 037°52'3 3.2
2014-Dec-12 14:33N 44°27' E 037°51'0 0.4
2014-Dec-12 13:33N 44°27' E 037°52'3 3.0
2014-Dec-12 12:33N 44°29' E 037°50'1 0.7
2014-Dec-12 11:33N 44°30' E 037°50'1 1.4
2014-Dec-12 10:33N 44°31' E 037°48'6 6.4
2014-Dec-12 09:33N 44°36' E 037°42'1 1.2
2014-Dec-12 08:33N 44°37' E 037°42'  
Track history (hours):
 
Tides and Currents Weather Stations Pressure Air Temp Water Temp Dewpoint Dewpoint Depression Visibility Wind Speed Wind Dir Waves Ship Positions

Pelagos

Last reported at 2014-Dec-22 08:33 UTC. Time now 2014-Dec-22 14:14 UTC.
Position N 40°19' E 026°36'.

Length 249 m; draft 13.3 m.

Type: Ship (hazmat cat C). MMSI: 240335000.

Date/timePositionNaut miles runAvg speedWind from/ knotsBaromVisibWave heightAir tempDewpointWater temp
2014-Dec-22 08:33N 40°19' E 026°36'  
2014-Dec-19 15:03N 40°53' E 028°40'611.4
2014-Dec-19 14:31N 40°54' E 028°48'9 8.9
2014-Dec-19 13:33N 40°58' E 028°58'20 9.8
2014-Dec-19 11:29N 41°17' E 029°08'8 6.9
2014-Dec-19 10:20N 41°22' E 029°17'6 8.0
2014-Dec-19 09:33N 41°23' E 029°25'1 0.7
2014-Dec-19 08:09N 41°23' E 029°24'1 0.4
2014-Dec-19 06:13N 41°23' E 029°22'1 1.1
2014-Dec-19 05:33N 41°22' E 029°23'3 2.9
2014-Dec-19 04:33N 41°20' E 029°26'1 0.6
2014-Dec-19 03:33N 41°20' E 029°25'3 0.5
2014-Dec-18 22:04N 41°23' E 029°26'2 3.8
2014-Dec-18 21:33N 41°22' E 029°29'0 0.4
2014-Dec-18 20:33N 41°22' E 029°29'1 1.4
2014-Dec-18 19:33N 41°22' E 029°27'1 1.3
2014-Dec-18 18:33N 41°21' E 029°26'1 1.2
2014-Dec-18 17:33N 41°21' E 029°24'1 1.0
2014-Dec-18 16:33N 41°21' E 029°23'1 0.8
2014-Dec-18 15:33N 41°21' E 029°22'3 2.9
2014-Dec-18 14:33N 41°23' E 029°25'4 4.5
2014-Dec-18 13:33N 41°26' E 029°29'1 0.6
2014-Dec-18 12:33N 41°26' E 029°28'1 0.8
2014-Dec-18 11:33N 41°26' E 029°27'1 0.5
2014-Dec-18 10:33N 41°25' E 029°28'3 3.2
2014-Dec-18 09:33N 41°28' E 029°31'23711.1
2014-Dec-17 12:15N 43°17' E 034°15'810.6
2014-Dec-17 11:28N 43°20' E 034°25'4013.3
2014-Dec-17 08:26N 43°39' E 035°15'1210.8
2014-Dec-17 07:17N 43°44' E 035°30'9011.1
2014-Dec-16 23:07N 44°25' E 037°22'1010.9
2014-Dec-16 22:15N 44°30' E 037°34'7 9.9
2014-Dec-16 21:33N 44°34' E 037°41'3 2.6
2014-Dec-16 20:33N 44°36' E 037°43'0 0.1
2014-Dec-16 19:33N 44°36' E 037°43'0 0.3
2014-Dec-16 18:33N 44°36' E 037°43'0 0.4
2014-Dec-16 17:33N 44°36' E 037°44'0 0.3
2014-Dec-16 16:33N 44°36' E 037°43'0 0.2
2014-Dec-16 15:33N 44°36' E 037°43'1 1.3
2014-Dec-16 14:33N 44°36' E 037°41'1 1.4
2014-Dec-16 13:30N 44°37' E 037°39'0 0.0
2014-Dec-16 12:30N 44°37' E 037°39'0 0.0
2014-Dec-16 11:33N 44°37' E 037°40'0 0.0
2014-Dec-16 10:27N 44°37' E 037°40'0 0.1
2014-Dec-16 08:21N 44°37' E 037°39'0 0.0
2014-Dec-16 07:33N 44°37' E 037°39'0 0.0
2014-Dec-16 06:33N 44°37' E 037°40'0 0.0
2014-Dec-16 05:10N 44°37' E 037°39'0 0.0
2014-Dec-15 22:13N 44°37' E 037°40'1 1.0
2014-Dec-15 21:33N 44°37' E 037°40'2 2.1
2014-Dec-15 20:33N 44°35' E 037°40'3 3.1
2014-Dec-15 19:33N 44°35' E 037°45'6 6.4
2014-Dec-15 18:33N 44°34' E 037°54'1 1.4
2014-Dec-15 17:32N 44°34' E 037°56'0 0.0
2014-Dec-15 16:32N 44°34' E 037°56'0 0.1
2014-Dec-15 15:32N 44°34' E 037°55'0 0.0
2014-Dec-15 14:32N 44°34' E 037°55'0 0.0
2014-Dec-15 13:32N 44°34' E 037°55'0 0.0
2014-Dec-15 12:32N 44°34' E 037°56'0 0.0
2014-Dec-15 11:32N 44°34' E 037°55'0 0.0
2014-Dec-15 10:29N 44°34' E 037°56'0 0.0
2014-Dec-15 09:32N 44°34' E 037°56'0 0.1
2014-Dec-15 08:32N 44°34' E 037°56'0 0.0
2014-Dec-15 07:32N 44°34' E 037°56'0 0.0
2014-Dec-15 06:32N 44°34' E 037°56'0 0.0
2014-Dec-15 05:32N 44°34' E 037°56'0 0.0
2014-Dec-15 04:32N 44°34' E 037°55'0 0.0
2014-Dec-15 03:32N 44°34' E 037°55'0 0.0
2014-Dec-15 02:32N 44°34' E 037°56'0 0.0
2014-Dec-15 01:32N 44°34' E 037°55'0 0.0
2014-Dec-15 00:32N 44°34' E 037°55'0 0.0
2014-Dec-14 23:32N 44°34' E 037°55'0 0.1
2014-Dec-14 22:32N 44°34' E 037°55'0 0.0
2014-Dec-14 21:32N 44°34' E 037°55'0 0.0
2014-Dec-14 20:32N 44°34' E 037°55'0 0.0
2014-Dec-14 19:29N 44°34' E 037°55'0 0.0
2014-Dec-14 18:32N 44°34' E 037°55'0 0.0
2014-Dec-14 17:32N 44°34' E 037°55'0 0.0
2014-Dec-14 16:32N 44°34' E 037°55'0 0.0
2014-Dec-14 15:32N 44°34' E 037°55'0 0.1
2014-Dec-14 14:32N 44°34' E 037°55'0 0.0
2014-Dec-14 13:32N 44°34' E 037°55'0 0.0
2014-Dec-14 12:32N 44°34' E 037°55'0 0.0
2014-Dec-14 11:32N 44°34' E 037°55'0 0.1
2014-Dec-14 10:32N 44°34' E 037°55'0 0.0
2014-Dec-14 09:32N 44°34' E 037°55'0 0.0
2014-Dec-14 08:32N 44°34' E 037°55'0 0.0
2014-Dec-14 07:32N 44°34' E 037°55'0 0.0
2014-Dec-14 06:29N 44°34' E 037°55'0 0.0
2014-Dec-14 05:32N 44°34' E 037°55'0 0.1
2014-Dec-14 04:32N 44°34' E 037°55'0 0.0
2014-Dec-14 03:32N 44°34' E 037°55'0 0.0
2014-Dec-14 02:32N 44°34' E 037°55'0 0.0
2014-Dec-14 01:32N 44°34' E 037°55'0 0.0
2014-Dec-14 00:32N 44°34' E 037°55'0 0.1
2014-Dec-13 23:32N 44°34' E 037°56'0 0.1
2014-Dec-13 22:32N 44°34' E 037°55'0 0.1
2014-Dec-13 21:32N 44°34' E 037°56'0 0.2
2014-Dec-13 20:32N 44°34' E 037°55'0 0.0
2014-Dec-13 19:32N 44°34' E 037°55'0 0.1
2014-Dec-13 18:32N 44°34' E 037°55'0 0.0
2014-Dec-13 17:32N 44°34' E 037°55'0 0.0
2014-Dec-13 16:32N 44°34' E 037°55'0 0.0
2014-Dec-13 15:32N 44°34' E 037°55'0 0.0
2014-Dec-13 14:32N 44°34' E 037°55'0 0.1
2014-Dec-13 13:32N 44°34' E 037°55'0 0.1
2014-Dec-13 12:32N 44°34' E 037°55'0 0.0
2014-Dec-13 11:32N 44°34' E 037°55'0 0.0
2014-Dec-13 10:32N 44°34' E 037°55'0 0.0
2014-Dec-13 09:32N 44°34' E 037°55'0 0.0
2014-Dec-13 08:32N 44°34' E 037°55'0 0.0
2014-Dec-13 07:32N 44°34' E 037°55'0 0.1
2014-Dec-13 06:32N 44°34' E 037°55'0 0.0
2014-Dec-13 05:32N 44°34' E 037°55'0 0.0
2014-Dec-13 04:32N 44°34' E 037°55'0 0.0
2014-Dec-13 03:32N 44°34' E 037°55'0 0.0
2014-Dec-13 02:32N 44°34' E 037°55'0 0.0
2014-Dec-13 01:32N 44°34' E 037°55'0 0.0
2014-Dec-13 00:32N 44°34' E 037°55'0 0.0
2014-Dec-12 23:32N 44°34' E 037°55'0 0.1
2014-Dec-12 22:32N 44°34' E 037°56'0 0.1
2014-Dec-12 21:32N 44°34' E 037°56'0 0.3
2014-Dec-12 20:32N 44°34' E 037°56'0 0.1
2014-Dec-12 19:32N 44°34' E 037°55'0 0.1
2014-Dec-12 18:32N 44°34' E 037°56'0 0.0
2014-Dec-12 17:32N 44°34' E 037°56'1 1.1
2014-Dec-12 16:33N 44°34' E 037°54'4 3.8
2014-Dec-12 15:33N 44°30' E 037°52'3 3.2
2014-Dec-12 14:33N 44°27' E 037°51'0 0.4
2014-Dec-12 13:33N 44°27' E 037°52'3 3.0
2014-Dec-12 12:33N 44°29' E 037°50'1 0.7
2014-Dec-12 11:33N 44°30' E 037°50'1 1.4
2014-Dec-12 10:33N 44°31' E 037°48'6 6.4
2014-Dec-12 09:33N 44°36' E 037°42'1 1.2
2014-Dec-12 08:33N 44°37' E 037°42'  

Dump ship's entire track history